x

Santa Monica Basin - 33nm Wsw Of Santa Monica, Ca (46025) Wave Buoy

1:50 - Sun 22nd Jan 2017 All times are PST. -8 hours from GMT.

  • Sig Wave height 11.2ft
  • Swell Direction
  • Peak Period 15s
  • Average Period 7s
  • Wind
    22mph, 29mph gusts
  • Sea Temp 58°f
  • Aire Temp 58°f
  • Sea Pressure 1011mb
  • Santa Monica Basin - 33nm Wsw Of Santa Monica, Ca
  • Santa Monica Basin - 33nm Wsw Of Santa Monica, Ca

More Historic Weather Station data

Upgrade to MSW Pro to gain access to the past 30 days of data for over 8000 Wavebouys and Weather Stations around the globe.

Join Pro

Comparision Forecast

View Surf forecast
   
dom 01/22 1:50 11ft 15s 7s 22 29 mph 1011mb 58f 58f
1:40  -   -   -  20 27 mph 1011.1mb 58f 58f
1:30  -   -   -  20 27 mph 1011.5mb 58f 58f
1:20  -   -   -  16 25 mph 1011.5mb 58f 58f
1:10  -   -   -  11 22 mph 1012mb 58f 58f
1:00  -   -   -  13 20 mph 1012.4mb 58f 58f
12:50 11ft 16s 7s 18 27 mph 1012.8mb 58f 57f
12:40 11ft  -  7s 20 27 mph 1012.9mb 58f 57f
12:30  -   -   -  22 31 mph 1013.1mb 58f 57f
12:20  -   -   -  25 29 mph 1013.5mb 58f 56f
12:10  -   -   -  22 31 mph 1013.6mb 58f 56f
12:00  -   -   -  25 34 mph 1014mb 58f 56f
11:50 9.5ft 14s 6s 27 34 mph 1014.3mb 58f 56f
11:40 9.5ft  -  6s 27 34 mph 1014.6mb 58f 56f
11:30  -   -   -  27 34 mph 1015mb 58f 56f
11:20  -   -   -  27 34 mph 1015mb 58f 56f
11:10  -   -   -  27 34 mph 1015.5mb 58f 56f
11:00  -   -   -  29 36 mph 1015.5mb 58f 56f
10:50 9ft 16s 6s 29 36 mph 1015.4mb 58f 56f
10:40 9ft  -  6s 27 36 mph 1015.6mb 58f 56f
10:30  -   -   -  29 38 mph 1015.8mb 58f 56f
10:20  -   -   -  29 36 mph 1016.1mb 58f 55f
10:10  -   -   -  29 38 mph 1016.4mb 58f 55f
10:00  -   -   -  27 34 mph 1016.8mb 58f 55f
9:50 9ft 16s 6s 27 34 mph 1017mb 58f 55f
9:40 9ft  -  6s 27 36 mph 1016.8mb 58f 55f
9:30  -   -   -  29 36 mph 1016mb - 55f
9:20  -   -   -  27 36 mph 1016.4mb 58f 56f
9:10  -   -   -  27 34 mph 1017.3mb 58f 56f
9:00  -   -   -  27 36 mph 1016.5mb 58f 56f
8:50 8ft 16s 7s 25 34 mph 1016.5mb 58f 56f
8:40 8ft  -  7s 25 29 mph 1016.5mb 58f 55f
8:30  -   -   -  25 31 mph 1017.1mb 58f 55f
8:20  -   -   -  22 29 mph 1017.5mb 58f 55f
8:10  -   -   -  22 29 mph 1017.1mb 58f 56f
8:00  -   -   -  22 31 mph 1017.3mb 58f 56f
7:50 9ft 16s 7s 22 31 mph 1016.9mb 58f 56f
7:40 9ft  -  7s 22 29 mph 1016.8mb 58f 56f
7:30  -   -   -  20 27 mph 1016.8mb 58f 56f
7:20  -   -   -  22 27 mph 1016.9mb 58f 56f
7:10  -   -   -  22 27 mph 1017.5mb 58f 56f
7:00  -   -   -  22 27 mph 1016.9mb 58f 56f
6:50 9ft 17s 8s 22 29 mph 1017mb 58f 56f
6:40 9ft  -  8s 22 27 mph 1017mb 58f 56f
6:30  -   -   -  22 27 mph 1017mb - 57f
6:20  -   -   -  20 25 mph 1017mb 58f 56f
6:10  -   -   -  20 27 mph 1017mb 58f 57f
6:00  -   -   -  20 27 mph 1016.8mb 58f 57f
5:50 9ft 17s 8s 22 29 mph 1016.8mb 58f 56f
5:40 9ft  -  8s 22 31 mph 1016.5mb 58f 57f
5:30  -   -   -  22 29 mph 1016.9mb 58f 57f
5:20  -   -   -  22 29 mph 1016.6mb 58f 56f
5:10  -   -   -  20 27 mph 1017mb 58f 56f
5:00  -   -   -  20 27 mph 1017.3mb 58f 56f
4:50 9.5ft 17s 9s 22 29 mph 1016.5mb - 56f
4:40  -   -   -  20 27 mph 1016.3mb 58f 57f
4:30  -   -   -  20 27 mph 1016.9mb 58f 57f
4:20  -   -   -  18 25 mph 1017mb 58f 57f
4:10  -   -   -  18 22 mph 1017.5mb 58f 57f
4:00  -   -   -  18 25 mph 1017mb 58f 56f
3:50 9.5ft 13s 9s 20 25 mph 1017.3mb 58f 56f
3:40 9.5ft  -  9s 20 27 mph 1017.1mb 58f 56f
3:30  -   -   -  18 25 mph 1017.3mb 58f 56f
3:20  -   -   -  16 25 mph 1017.5mb 58f 56f
3:10  -   -   -  16 20 mph 1018.6mb 58f 56f
3:00  -   -   -  13 20 mph 1018.5mb 58f 56f
2:50 9ft 15s 9s 13 22 mph 1018.6mb 58f 56f
2:40 9ft  -  9s 16 22 mph 1017.8mb 58f 56f
2:30  -   -   -  13 20 mph 1018mb - 56f
2:20  -   -   -  13 20 mph 1018.6mb 58f 56f
2:10  -   -   -  18 25 mph 1018.5mb 58f 56f
2:00  -   -   -  13 18 mph 1018.5mb 58f 56f
1:50 10.5ft 14s 10s 13 20 mph 1018.6mb 58f 56f
1:40 10.5ft  -  10s 11 16 mph 1018.6mb 58f 56f
1:30  -   -   -  11 18 mph 1018.5mb 58f 56f
1:20  -   -   -  13 18 mph 1018.3mb 58f 56f
1:10  -   -   -  13 18 mph 1018.1mb 58f 57f
1:00  -   -   -  11 16 mph 1018.9mb 58f 57f
12:50 10.5ft 17s 10s 13 16 mph 1018.9mb 58f 57f
12:40 10.5ft  -  10s 13 18 mph 1018.8mb 58f 57f
12:30  -   -   -  13 18 mph 1018.6mb 58f 57f
12:20  -   -   -  11 18 mph 1018.5mb 58f 57f
12:10  -   -   -  11 16 mph 1018.8mb 58f 57f
12:00  -   -   -  11 16 mph 1018.9mb 58f 57f
sáb 01/21 11:50 10.5ft 17s 10s 11 16 mph 1018.8mb 58f 57f
11:40 10.5ft  -  10s 11 18 mph 1018.5mb 58f 57f
11:30  -   -   -  11 18 mph 1017.9mb 58f 57f
11:20  -   -   -  11 16 mph 1018.8mb 58f 57f
11:10  -   -   -  11 13 mph 1019mb 58f 57f
11:00  -   -   -  9 11 mph 1019.5mb 58f 57f
10:50 11ft 16s 10s 9 11 mph 1019.8mb 58f 57f
10:40 11ft  -  10s 9 11 mph 1019.6mb 58f 57f
10:30  -   -   -  9 11 mph 1019mb 58f 57f
10:20  -   -   -  9 11 mph 1018.9mb 58f 57f
10:10  -   -   -  9 11 mph 1018.5mb 58f 57f
10:00  -   -   -  7 11 mph 1018.4mb 58f 57f
9:50 10ft 15s 10s 7 9 mph 1018.5mb 58f 57f
9:40 10ft  -  10s 7 9 mph 1018.4mb 58f 57f
9:30  -   -   -  7 9 mph 1018mb 58f 57f
9:20  -   -   -  4 9 mph 1018.1mb 58f 57f
9:10  -   -   -  4 7 mph 1018mb 58f 57f
9:00  -   -   -  4 11 mph 1017mb 58f 57f
8:50 11ft 11s 10s 4 9 mph 1017.6mb 58f 57f
8:40 11ft  -  10s 7 11 mph 1018mb 58f 57f
8:30  -   -   -  9 13 mph 1018.3mb 58f 57f
8:20  -   -   -  9 13 mph 1018.1mb 58f 57f
8:10  -   -   -  9 13 mph 1018.3mb 58f 57f
8:00  -   -   -  9 16 mph 1018.3mb 58f 57f
7:50 11.5ft 19s 10s 11 13 mph 1018.1mb 58f 57f
7:40 11.5ft  -  10s 11 16 mph 1018mb 58f 57f
7:30  -   -   -  11 13 mph 1017.8mb 58f 57f
7:20  -   -   -  11 16 mph 1017.3mb 58f 57f
7:10  -   -   -  11 16 mph 1017.6mb 58f 57f
7:00  -   -   -  11 16 mph 1017.4mb 58f 57f
6:50 10.5ft 15s 9s 13 18 mph 1017.4mb 58f 57f
6:40  -   -   -  13 18 mph 1017mb 58f 57f
6:30  -   -   -  13 18 mph 1017mb 58f 57f
6:20  -   -   -  16 20 mph 1016.6mb 58f 57f
6:10  -   -   -  13 18 mph 1016.5mb 58f 57f
6:00  -   -   -  13 18 mph 1016.1mb 58f 57f
5:50 12ft 15s 10s 13 16 mph 1015.9mb 58f 57f
5:40 12ft  -  10s 13 18 mph 1015.6mb 58f 57f
5:30  -   -   -  13 16 mph 1015.5mb 58f 57f
5:20  -   -   -  11 16 mph 1015.5mb 58f 57f
5:10  -   -   -  13 18 mph 1015.3mb 58f 57f
5:00  -   -   -  13 18 mph 1015.3mb 58f 57f
4:50 12ft 19s 10s 13 18 mph 1015.4mb 58f 57f
4:40  -   -   -  13 18 mph 1015mb 58f 57f
4:30  -   -   -  16 20 mph 1015.1mb 58f 57f
4:20  -   -   -  16 20 mph 1015.5mb 58f 57f
4:10  -   -   -  16 20 mph 1015.4mb 58f 57f
4:00  -   -   -  13 20 mph 1014.6mb 58f 57f
3:50 12ft 17s 9s 16 20 mph 1014.6mb 58f 57f
3:40 12ft  -  9s 18 25 mph 1014.6mb 58f 57f
3:30  -   -   -  18 22 mph 1014.9mb 58f 57f
3:20  -   -   -  18 22 mph 1015.1mb 58f 57f
3:10  -   -   -  18 22 mph 1015mb 58f 57f
3:00  -   -   -  18 25 mph 1014.8mb 58f 57f
2:50 12.5ft 16s 9s 20 27 mph 1014.6mb 58f 57f
2:40 12.5ft  -  9s 20 25 mph 1014.5mb 58f 57f
2:30  -   -   -  18 25 mph 1014.5mb 58f 57f
2:20  -   -   -  18 22 mph 1014.5mb 58f 57f
2:10  -   -   -  18 22 mph 1014.8mb 58f 57f
2:00  -   -   -  18 22 mph 1014.4mb 58f 57f
1:50 12ft 13s 9s 18 27 mph 1014mb 58f 57f
1:40  -   -   -  18 25 mph 1014.3mb 58f 57f
1:30  -   -   -  18 22 mph 1014mb 58f 57f
1:20  -   -   -  18 22 mph 1014.1mb 58f 57f
1:10  -   -   -  16 20 mph 1014mb 58f 57f
1:00  -   -   -  18 22 mph 1013.8mb 58f 57f
12:50 11ft 15s 8s 18 22 mph 1013.8mb 58f 57f
12:40 11ft  -  8s 20 25 mph 1013.9mb 58f 56f
12:30  -   -   -  20 25 mph 1013.9mb - 56f
12:20  -   -   -  20 25 mph 1014mb 58f 56f
12:10  -   -   -  20 27 mph 1014.1mb 58f 56f
12:00  -   -   -  20 27 mph 1014.4mb 58f 56f
11:50 11ft 15s 9s 20 25 mph 1014.4mb 58f 56f
11:40 11ft  -  9s 20 25 mph 1014.5mb 58f 56f
11:30  -   -   -  20 25 mph 1014.4mb 58f 56f
11:20  -   -   -  18 22 mph 1014.3mb 58f 56f
11:10  -   -   -  18 22 mph 1014.3mb 58f 56f
11:00  -   -   -  18 25 mph 1014mb 58f 56f
10:50 11.5ft 16s 8s 18 22 mph 1014.3mb 58f 56f
10:40 11.5ft  -  8s 18 25 mph 1014mb 58f 56f
10:30  -   -   -  18 22 mph 1014mb 58f 56f
10:20  -   -   -  18 22 mph 1014mb 58f 56f
10:10  -   -   -  20 25 mph 1013.8mb 58f 56f
10:00  -   -   -  20 27 mph 1013.5mb 58f 56f
9:50 10.5ft 15s 8s 18 25 mph 1013.4mb 58f 56f
9:40 10.5ft  -  8s 18 25 mph 1013.3mb 58f 56f
9:30  -   -   -  18 22 mph 1013mb 58f 56f
9:20  -   -   -  18 25 mph 1012.9mb 58f 56f
9:10  -   -   -  18 22 mph 1012.4mb 58f 55f
9:00  -   -   -  18 22 mph 1012mb 58f 55f
8:50 11ft 13s 8s 18 22 mph 1012mb 58f 56f
8:40 11ft  -  8s 18 25 mph 1011.8mb 58f 56f
8:30  -   -   -  18 25 mph 1011.5mb 58f 55f
8:20  -   -   -  20 25 mph 1011.3mb 58f 56f
8:10  -   -   -  20 25 mph 1011mb 58f 56f
8:00  -   -   -  20 27 mph 1010.8mb 58f 56f
7:50 10.5ft 13s 8s 20 27 mph 1010.8mb 58f 56f
7:40 10.5ft  -  8s 20 29 mph 1010.4mb 58f 56f
7:30  -   -   -  20 27 mph 1010mb 58f 55f
7:20  -   -   -  20 27 mph 1010mb 58f 55f
7:10  -   -   -  20 27 mph 1010mb 58f 55f
7:00  -   -   -  20 27 mph 1009.6mb 58f 55f
6:50 11ft 13s 8s 20 27 mph 1009.4mb 58f 55f
6:40 11ft  -  8s 20 25 mph 1009.4mb 58f 55f
6:30  -   -   -  20 25 mph 1009mb 58f 55f
6:20  -   -   -  20 25 mph 1008.5mb 58f 55f
6:10  -   -   -  20 27 mph 1008.3mb 58f 55f
6:00  -   -   -  20 27 mph 1008.1mb 58f 55f
5:50 11.5ft 12s 8s 20 25 mph 1008mb 58f 55f
5:40  -   -   -  20 25 mph 1007.9mb 58f 55f
5:30  -   -   -  20 27 mph 1007.8mb 58f 55f
5:20  -   -   -  22 29 mph 1007.5mb 58f 55f
5:10  -   -   -  22 27 mph 1007mb - -
5:00  -   -   -  22 29 mph 1006.8mb 58f 55f
4:50 10.5ft 11s 7s 22 29 mph 1006.6mb 58f 55f
4:40 10.5ft  -  7s 22 29 mph 1006.5mb 58f 55f
4:30  -   -   -  22 29 mph 1006.6mb - 55f
4:20  -   -   -  22 29 mph 1006.5mb 58f 55f
4:10  -   -   -  22 29 mph 1006.3mb 58f 55f
4:00  -   -   -  22 29 mph 1006.5mb 58f 55f
3:50 10.5ft 13s 7s 25 31 mph 1006.3mb 58f 55f
3:40  -   -   -  22 29 mph 1005.9mb 59f 55f
3:30  -   -   -  25 31 mph 1005.5mb 59f 56f
3:20  -   -   -  27 34 mph 1005.4mb 59f 56f
3:10  -   -   -  27 34 mph 1005mb 59f 56f
3:00  -   -   -  27 34 mph 1004.9mb 59f 56f
2:50 10.5ft 10s 7s 27 36 mph 1004.5mb 59f 56f
2:40 10.5ft  -  7s 25 31 mph 1004.4mb 59f 55f
2:30  -   -   -  27 31 mph 1004.1mb 59f 55f
2:20  -   -   -  27 34 mph 1004mb 59f 55f
2:10  -   -   -  27 34 mph 1004mb 59f 55f
2:00  -   -   -  25 31 mph 1004mb 59f 56f
1:50 9.5ft 14s 7s 25 31 mph 1004mb 59f 55f
1:40  -   -   -  20 29 mph 1004mb 59f 55f
1:30  -   -   -  22 29 mph 1003.9mb 59f 55f
1:20  -   -   -  22 27 mph 1003.8mb 59f 55f
1:10  -   -   -  22 29 mph 1003.6mb 59f 55f
1:00  -   -   -  22 29 mph 1003.5mb 59f 55f
12:50 10ft 14s 8s 25 29 mph 1003.3mb 59f 55f
12:40 10ft  -  8s 22 29 mph 1003.1mb 59f 55f
12:30  -   -   -  25 31 mph 1003.1mb 59f 55f
12:20  -   -   -  22 29 mph 1003.1mb 59f 55f
12:10  -   -   -  22 29 mph 1003.1mb 59f 55f
12:00  -   -   -  20 27 mph 1003.3mb 59f 55f
vie 01/20 11:50 10ft 16s 8s 20 25 mph 1003.1mb 59f 55f
11:40 10ft  -  8s 20 25 mph 1003.1mb 59f 55f
11:30  -   -   -  18 22 mph 1003mb 59f 55f
11:20  -   -   -  18 25 mph 1002.9mb 59f 55f
11:10  -   -   -  18 25 mph 1002.9mb 59f 55f
11:00  -   -   -  18 25 mph 1002.9mb 59f 55f
10:50 9.5ft 8s 7s 20 27 mph 1002.9mb 59f 55f
10:40 9.5ft  -  7s 22 29 mph 1002.9mb 59f 55f
10:30  -   -   -  22 29 mph 1002.8mb 59f 55f
10:20  -   -   -  20 27 mph 1002.5mb 59f 55f
10:10  -   -   -  18 22 mph 1002.5mb 59f 55f
10:00  -   -   -  20 25 mph 1002.4mb 59f 55f
9:50 9ft 8s 7s 18 22 mph 1002.4mb 59f 55f
9:40 9ft  -  7s 20 25 mph 1002.3mb 59f 55f
9:30  -   -   -  22 27 mph 1002mb 59f 55f
9:20  -   -   -  29 36 mph 1002mb 59f 55f
9:10  -   -   -  29 36 mph 1002mb 59f 56f
9:00  -   -   -  27 34 mph 1001.9mb 59f 56f
8:50 8.5ft 8s 6s 27 34 mph 1001.6mb 59f 56f
8:40 8.5ft  -  6s 25 31 mph 1001.5mb 59f 56f
8:30  -   -   -  22 29 mph 1001.3mb 59f 56f
8:20  -   -   -  25 29 mph 1001mb 59f 56f
8:10  -   -   -  25 31 mph 1000.8mb 59f 56f
8:00  -   -   -  25 31 mph 1000.6mb - 56f
7:50 9ft 14s 7s 25 29 mph 1000.5mb 59f 56f
7:40 9ft  -  7s 25 31 mph 1000.1mb 59f 56f
7:30  -   -   -  27 31 mph 1000.1mb 59f 56f
7:20  -   -   -  22 29 mph 999.9mb 59f 56f
7:10  -   -   -  25 31 mph 999.6mb 59f 56f
7:00  -   -   -  25 31 mph 999.5mb 59f 56f
6:50 9.5ft 15s 7s 25 31 mph 999.5mb 59f 57f
6:40 9.5ft  -  7s 22 31 mph 999.5mb 59f 57f
6:30  -   -   -  25 29 mph 999.5mb 59f 57f
6:20  -   -   -  22 29 mph 999.1mb 59f 57f
6:10  -   -   -  25 29 mph 999mb 59f 57f
6:00  -   -   -  25 31 mph 999mb 59f 56f
5:50 10ft 15s 7s 25 31 mph 999.3mb - 56f
5:40  -   -   -  22 29 mph 998.6mb 59f 56f
5:30  -   -   -  22 27 mph 998.6mb 59f 56f
5:20  -   -   -  25 31 mph 998.5mb 59f 56f
5:10  -   -   -  25 34 mph 998.4mb 59f 56f
5:00  -   -   -  27 36 mph 998.4mb - 56f
4:50 10.5ft 15s 7s 25 34 mph 998mb 59f 56f
4:40 10.5ft  -  7s 25 34 mph 998mb 59f 56f
4:30  -   -   -  25 29 mph 998mb 59f 56f
4:20  -   -   -  25 29 mph 998mb 59f 56f
4:10  -   -   -  22 27 mph 997.9mb 59f 56f
4:00  -   -   -  22 27 mph 997.8mb 59f 56f
3:50 11ft 15s 7s 22 27 mph 997.9mb 59f 56f
3:40 11ft  -  7s 22 27 mph 997.8mb 59f 56f
3:30  -   -   -  22 29 mph 998mb 59f 56f
3:20  -   -   -  25 29 mph 997.6mb 59f 56f
3:10  -   -   -  27 34 mph 997.6mb 59f 57f
3:00  -   -   -  27 34 mph 997.5mb 59f 57f
2:50 11.5ft 7s 7s 27 34 mph 997.5mb 59f 57f
2:40  -   -   -  25 29 mph 997.5mb 59f 58f
2:30  -   -   -  25 29 mph 997.6mb 59f 58f
2:20  -   -   -  22 29 mph 997.5mb 59f 57f
2:10  -   -   -  22 27 mph 997mb 59f 57f
2:00  -   -   -  25 29 mph 997.3mb 59f 58f
1:50 12ft 7s 7s 27 36 mph 997.4mb 59f 58f
1:40 12ft  -  7s 27 31 mph 997mb 59f 58f
1:30  -   -   -  29 38 mph 997.4mb 59f 58f
1:20  -   -   -  31 40 mph 997.4mb 59f 59f
1:10  -   -   -  29 40 mph 997.4mb 59f 59f
1:00  -   -   -  29 38 mph 997.5mb 59f 60f
12:50 12ft 14s 7s 27 34 mph 997.6mb 59f 60f
12:40 12ft  -  7s 27 34 mph 997.5mb 59f 59f
12:30  -   -   -  25 34 mph 997.9mb 59f 59f
12:20  -   -   -  25 31 mph 998mb 59f 59f
12:10  -   -   -  20 29 mph 998.5mb 59f 58f
12:00  -   -   -  16 27 mph 998.9mb 59f 56f
11:50 11ft 15s 7s 13 20 mph 999.1mb 59f 56f
11:40 11ft  -  7s 25 47 mph 999.5mb 59f 57f
11:30  -   -   -  36 45 mph 998.5mb 59f 58f
11:20  -   -   -  34 45 mph 998.9mb 59f 57f
11:10  -   -   -  31 43 mph 999.3mb 59f 57f
11:00  -   -   -  34 43 mph 999.4mb 59f 57f
10:50 9ft 15s 7s 27 40 mph 999.4mb 59f 57f
10:40  -   -   -  20 29 mph 1000.5mb 59f 57f
10:30  -   -   -  27 34 mph 1000.9mb - -
10:20  -   -   -  27 36 mph 1001.3mb 59f 57f
10:10  -   -   -  27 36 mph 1001.5mb 59f 57f
10:00  -   -   -  27 36 mph 1001.6mb 59f 57f
9:50 9ft 15s 7s 27 34 mph 1002mb 59f 57f
9:40 9ft  -  7s 27 36 mph 1002.4mb 59f 58f
9:30  -   -   -  27 34 mph 1002.5mb 59f 58f
9:20  -   -   -  25 31 mph 1002.4mb 59f 58f
9:10  -   -   -  22 31 mph 1002.9mb 59f 58f
9:00  -   -   -  22 29 mph 1003mb 59f 57f
8:50 8ft 15s 8s 25 29 mph 1003.5mb 59f 57f
8:40  -   -   -  22 29 mph 1004mb 59f 57f
8:30  -   -   -  22 27 mph 1004.1mb 59f 56f
8:20  -   -   -  20 27 mph 1004mb 59f 56f
8:10  -   -   -  22 27 mph 1004mb 59f 56f
8:00  -   -   -  20 27 mph 1004.5mb 59f 56f
7:50 9ft 15s 9s 20 25 mph 1004.9mb 59f 56f
7:40 9ft  -  9s 18 22 mph 1005.1mb 59f 56f
7:30  -   -   -  18 20 mph 1005.5mb 59f 56f
7:20  -   -   -  16 20 mph 1005.6mb 59f 56f
7:10  -   -   -  16 18 mph 1005.6mb 59f 56f
7:00  -   -   -  13 18 mph 1006mb 59f 56f
6:50 8.5ft 14s 9s 16 20 mph 1006.5mb 59f 56f
6:40 8.5ft  -  9s 16 22 mph 1006.5mb 59f 56f
6:30  -   -   -  18 25 mph 1006.8mb 59f 55f
6:20  -   -   -  16 25 mph 1006.5mb 59f 55f
6:10  -   -   -  7 11 mph 1006.8mb 59f 55f
6:00  -   -   -  4 9 mph 1006.9mb 59f 54f
5:50 8.5ft 13s 9s 4 9 mph 1007mb 59f 54f
5:40 8.5ft  -  9s 4 9 mph 1007.3mb 59f 55f
5:30  -   -   -  7 11 mph 1007.5mb 59f 55f
5:20  -   -   -  7 11 mph 1007.6mb - -
5:10  -   -   -  9 13 mph 1008mb 59f 55f
5:00  -   -   -  11 16 mph 1008mb 59f 56f
4:50 8.5ft 14s 9s 11 18 mph 1008.1mb 59f 56f
4:40  -   -   -  7 9 mph 1007.9mb 59f 56f
4:30  -   -   -  7 11 mph 1007.9mb 59f 56f
4:20  -   -   -  7 9 mph 1008.3mb 59f 56f
4:10  -   -   -  7 9 mph 1008mb 59f 55f
4:00  -   -   -  7 11 mph 1008.5mb 59f 55f
3:50 8ft 13s 9s 11 16 mph 1008.8mb 59f 56f
3:40 8ft  -  9s 9 13 mph 1008.9mb 59f 56f
3:30  -   -   -  7 13 mph 1009mb 59f 56f
3:20  -   -   -  9 13 mph 1009mb 59f 56f
3:10  -   -   -  11 13 mph 1009.3mb 59f 56f
3:00  -   -   -  9 11 mph 1009mb 59f 56f
2:50 8ft 14s 8s 7 11 mph 1009.3mb 59f 56f
2:40  -   -   -  4 9 mph 1009.3mb 59f 56f
2:30  -   -   -  4 9 mph 1009.1mb 59f 56f
2:20  -   -   -  4 9 mph 1009.1mb 59f 56f
2:10  -   -   -  9 13 mph 1009.5mb 59f 57f
2:00  -   -   -  9 16 mph 1009.9mb 59f 57f
1:50 7ft 13s 7s 9 13 mph 1009.8mb 59f 57f
1:40  -   -   -  13 16 mph 1010.3mb 59f 57f
1:30  -   -   -  13 18 mph 1010.5mb 59f 57f
1:20  -   -   -  13 18 mph 1010.5mb 59f 57f
1:10  -   -   -  13 18 mph 1010.8mb 59f 57f
1:00  -   -   -  16 20 mph 1011mb 59f 57f
12:50 6.5ft 11s 7s 13 20 mph 1011mb 59f 57f
12:40 6.5ft  -  7s 16 18 mph 1011.1mb 59f 57f
12:30  -   -   -  13 18 mph 1011mb 59f 57f
12:20  -   -   -  13 18 mph 1010.8mb 59f 57f
12:10  -   -   -  13 18 mph 1011mb 59f 57f
12:00  -   -   -  13 18 mph 1011mb 59f 57f
jue 01/19 11:50 7ft 12s 7s 16 20 mph 1011.3mb 59f 57f
11:40 7ft  -  7s 16 20 mph 1011.6mb 59f 57f
11:30  -   -   -  13 18 mph 1011.5mb 59f 57f
11:20  -   -   -  11 16 mph 1011.5mb 59f 57f
11:10  -   -   -  11 16 mph 1011.3mb 59f 57f
11:00  -   -   -  9 13 mph 1011.3mb 59f 57f
10:50 6.5ft 12s 7s 11 13 mph 1011.5mb 59f 57f
10:40  -   -   -  13 16 mph 1011.6mb 59f 57f
10:30  -   -   -  13 16 mph 1011.9mb 59f 57f
10:20  -   -   -  13 18 mph 1012.3mb 59f 57f
10:10  -   -   -  16 18 mph 1012.5mb 59f 57f
10:00  -   -   -  16 20 mph 1012.6mb 59f 57f
9:50 7ft 13s 7s 16 20 mph 1012.6mb 59f 57f
9:40 7ft  -  7s 16 20 mph 1012.5mb 59f 57f
9:30  -   -   -  16 20 mph 1012.5mb 59f 57f
9:20  -   -   -  16 20 mph 1012.4mb 59f 57f
9:10  -   -   -  16 20 mph 1012.4mb 59f 57f
9:00  -   -   -  16 18 mph 1012.4mb 59f 57f
8:50 6.5ft  -  7s 16 20 mph 1012.1mb 59f 57f
8:40 6.5ft  -  7s 16 18 mph 1012.1mb 59f 58f
8:30  -   -   -  16 20 mph 1012.1mb 59f 58f
8:20  -   -   -  16 22 mph 1012.1mb 59f 58f
8:10  -   -   -  16 20 mph 1012.4mb 59f 58f
8:00  -   -   -  18 22 mph 1012.5mb 59f 58f
7:50 6ft 13s 7s 16 22 mph 1012.4mb 59f 58f
7:40 6ft  -  7s 18 20 mph 1012.8mb 59f 58f
7:30  -   -   -  16 20 mph 1012.5mb 59f 58f
7:20  -   -   -  18 22 mph 1012.6mb 59f 58f
7:10  -   -   -  18 22 mph 1012.5mb 59f 58f
7:00  -   -   -  16 20 mph 1012.5mb 59f 58f
6:50 6ft 13s 6s 16 20 mph 1012.5mb 59f 58f
6:40 6ft  -  6s 16 20 mph 1012.6mb 59f 58f
6:30  -   -   -  18 20 mph 1012.6mb 59f 58f
6:20  -   -   -  18 20 mph 1012.6mb 59f 58f
6:10  -   -   -  16 20 mph 1012.6mb 59f 58f
6:00  -   -   -  18 22 mph 1012.5mb 59f 58f
5:50 6ft 13s 6s 18 22 mph 1012.4mb 59f 58f
5:40  -   -   -  18 22 mph 1012.3mb 59f 58f
5:30  -   -   -  18 20 mph 1012.4mb 59f 58f
5:20  -   -   -  18 20 mph 1012.4mb 59f 58f
5:10  -   -   -  18 22 mph 1012.9mb 59f 58f
5:00  -   -   -  18 22 mph 1012.3mb 59f 58f
4:50 6.5ft 13s 6s 20 22 mph 1012.1mb 59f 58f
4:40  -   -   -  20 25 mph 1012mb 59f 58f
4:30  -   -   -  20 22 mph 1012mb 59f 58f
4:20  -   -   -  20 22 mph 1012mb 59f 58f
4:10  -   -   -  20 25 mph 1012mb 59f 58f
4:00  -   -   -  18 22 mph 1012mb 59f 58f
3:50 7ft 13s 7s 18 22 mph 1012mb 59f 58f
3:40 7ft  -  7s 18 22 mph 1012.1mb 59f 58f
3:30  -   -   -  16 20 mph 1012.3mb 59f 58f
3:20  -   -   -  16 20 mph 1012.4mb 59f 58f
3:10  -   -   -  16 22 mph 1012.5mb 59f 58f
3:00  -   -   -  16 20 mph 1012.5mb - -
2:50 8ft 14s 7s 16 20 mph 1012.5mb 59f 58f
2:40  -   -   -  18 22 mph 1012.5mb 59f 58f
2:30  -   -   -  16 20 mph 1012.5mb 59f 58f
2:20  -   -   -  16 20 mph 1012.5mb 59f 58f
2:10  -   -   -  18 22 mph 1012.6mb 59f 58f
2:00  -   -   -  16 22 mph 1012.6mb 59f 58f
1:50 7.5ft 13s 7s 18 22 mph 1012.8mb 59f 58f
1:40 7.5ft  -  7s 16 22 mph 1012.9mb 59f 58f
1:30  -   -   -  16 20 mph 1012.9mb 59f 58f
1:20  -   -   -  16 20 mph 1013mb 59f 58f
1:10  -   -   -  16 20 mph 1013mb 59f 58f
1:00  -   -   -  18 22 mph 1013mb 59f 58f
12:50 7.5ft 14s 7s 16 20 mph 1013.3mb 59f 58f
12:40  -   -   -  16 18 mph 1013.6mb 59f 58f
12:30  -   -   -  13 18 mph 1013.8mb 59f 58f
12:20  -   -   -  13 18 mph 1013.9mb 59f 58f
12:10  -   -   -  13 18 mph 1014mb 59f 58f
12:00  -   -   -  13 16 mph 1014mb 59f 58f
11:50 7ft 13s 7s 13 16 mph 1014.3mb 59f 58f
11:40 7ft  -  7s 13 16 mph 1014.4mb 59f 58f
11:30  -   -   -  13 18 mph 1014.4mb 59f 58f
11:20  -   -   -  16 18 mph 1014.5mb 59f 58f
11:10  -   -   -  16 18 mph 1014.8mb 59f 58f
11:00  -   -   -  16 20 mph 1014.9mb 59f 58f
10:50 6ft 13s 6s 16 20 mph 1015mb 59f 58f
10:40 6ft  -  6s 18 22 mph 1015mb 59f 58f
10:30  -   -   -  18 20 mph 1015mb 59f 58f
10:20  -   -   -  18 22 mph 1015mb 59f 58f
10:10  -   -   -  18 22 mph 1015mb 59f 58f
10:00  -   -   -  18 22 mph 1014.9mb 59f 58f
9:50 5.5ft 13s 6s 20 25 mph 1014.9mb 59f 58f
9:40  -   -   -  20 22 mph 1014.8mb 59f 58f
9:30  -   -   -  18 22 mph 1014.5mb 59f 58f
9:20  -   -   -  18 22 mph 1014.5mb 59f 58f
9:10  -   -   -  18 20 mph 1014.5mb 59f 58f
9:00  -   -   -  18 20 mph 1014.5mb 59f 58f
8:50 6ft 13s 6s 16 20 mph 1014.5mb 59f 58f
8:40 6ft  -  6s 16 20 mph 1014.3mb 59f 58f
8:30  -   -   -  16 18 mph 1014.1mb 59f 58f
8:20  -   -   -  16 20 mph 1014mb 59f 58f
8:10  -   -   -  18 20 mph 1014mb 59f 58f
8:00  -   -   -  18 20 mph 1013.8mb 59f 58f
7:50 5.5ft 13s 6s 18 20 mph 1013.5mb 59f 58f
7:40 5.5ft  -  6s 16 20 mph 1013.5mb 59f 58f
7:30  -   -   -  16 20 mph 1013.5mb 59f 58f
7:20  -   -   -  18 22 mph 1013.3mb 59f 58f
7:10  -   -   -  18 22 mph 1013.1mb 59f 58f
7:00  -   -   -  18 22 mph 1013mb 59f 58f
6:50 5ft 13s 5s 16 20 mph 1012.9mb 59f 58f
6:40 5ft  -  5s 18 20 mph 1012.8mb 59f 58f
6:30  -   -   -  18 20 mph 1012.6mb 59f 59f
6:20  -   -   -  18 25 mph 1012.6mb 59f 59f
6:10  -   -   -  20 27 mph 1012.6mb 59f 59f
6:00  -   -   -  20 25 mph 1012.5mb 59f 59f
5:50 5.5ft 13s 6s 20 25 mph 1012.5mb 59f 59f
5:40  -   -   -  18 22 mph 1012.4mb 59f 58f
5:30  -   -   -  16 22 mph 1012.4mb 59f 58f
5:20  -   -   -  16 20 mph 1012.5mb 59f 58f
5:10  -   -   -  18 20 mph 1012.4mb - 57f
5:00  -   -   -  18 22 mph 1012.4mb 59f 57f
4:50 5ft 13s 6s 18 22 mph 1012.5mb 59f 57f
4:40 5ft  -  6s 20 25 mph 1012.6mb 59f 56f
4:30  -   -   -  18 20 mph 1012.9mb 59f 56f
4:20  -   -   -  18 22 mph 1013.1mb 59f 56f
4:10  -   -   -  20 22 mph 1013.1mb 59f 57f
4:00  -   -   -  20 25 mph 1013.1mb 59f 56f
3:50 6ft 14s 6s 22 27 mph 1013.5mb 59f 56f
3:40 6ft  -  6s 22 29 mph 1013.6mb 59f 56f
3:30  -   -   -  22 27 mph 1013.9mb 59f 56f
3:20  -   -   -  25 31 mph 1014.3mb 59f 57f
3:10  -   -   -  20 27 mph 1014.3mb 59f 57f
3:00  -   -   -  20 25 mph 1014mb 59f 57f
2:50 5ft 14s 6s 18 25 mph 1014.3mb 59f 57f
2:40 5ft  -  6s 20 25 mph 1014.4mb 59f 57f
2:30  -   -   -  18 22 mph 1014.8mb 59f 57f
2:20  -   -   -  18 22 mph 1014.9mb 59f 57f
2:10  -   -   -  18 22 mph 1015mb 59f 56f
2:00  -   -   -  13 20 mph 1015.3mb 59f 56f
1:50 4.5ft 14s 5s 16 20 mph 1015.5mb 59f 56f
1:40 4.5ft  -  5s 11 20 mph 1015.6mb 59f 56f
1:30  -   -   -  13 18 mph 1016mb 59f 56f
1:20  -   -   -  13 18 mph 1016.1mb 59f 57f
1:10  -   -   -  16 18 mph 1016.3mb 59f 57f
1:00  -   -   -  18 20 mph 1016mb 59f 57f
12:50 5ft 14s 6s 18 22 mph 1015.6mb 59f 57f
12:40 5ft  -  6s 18 20 mph 1016mb 59f 57f
12:30  -   -   -  18 20 mph 1016mb - -
12:20  -   -   -  16 20 mph 1016.4mb 59f 57f
12:10  -   -   -  16 20 mph 1016.5mb 59f 57f
12:00  -   -   -  16 20 mph 1016.6mb 59f 57f
mié 01/18 11:50 5ft 14s 6s 18 20 mph 1016.5mb 59f 57f
11:40 5ft  -  6s 18 22 mph 1016.8mb 59f 57f
11:30  -   -   -  18 22 mph 1016.5mb 59f 57f
11:20  -   -   -  18 22 mph 1016.5mb 59f 57f
11:10  -   -   -  18 22 mph 1016.5mb 59f 57f
11:00  -   -   -  18 22 mph 1016.4mb 59f 57f